Airfield :
LOGIN :

Register | Disclaimer

   EN    FR    IT 

 










Legend :    VFR   Marginal VFR   IFR   Intensive IFR   Very Intensive IFR
Visi :
Ceiling :
>= 8 km
>= 3000ft
5 to 8 km
1000 to 3000 ft
1500m to 5 km
500 to 1000 ft
800 to 1500m
200 to 500 ft
< 800m
< 200 ft
Symbols :   Thunderstorms  Fog  Heavy snow  Heavy precipitations  Wind > 20 kt
SIGMETs :     Misc.  Thunderstorms  Icing  Turbulence  Mountain Waves  Volcanic Ashes






- Airport Elevation : 751 ft
- IATA code : ENC


LFSN - Nancy Essey

CURRENT METAR :
  • 270830Z AUTO 19012KT 9999 -DZ BKN015 BKN043 BKN058 03/00 Q1004

EXPIRED METARs :
  • 270800Z AUTO 19011KT 9999 FEW012 OVC070 03/00 Q1005
  • 270730Z AUTO 18010KT 9999 -DZ BKN012 BKN019 BKN033 02/00 Q1005
  • 270700Z AUTO 18011KT 150V210 9999 FEW011 SCT021 BKN043 02/00 Q1006
  • 270630Z AUTO 17010KT 9999 BKN010 BKN048 BKN056 02/00 Q1007
  • 270600Z AUTO 18010KT 9999 SCT010 SCT045 BKN054 02/00 Q1007
  • 270530Z AUTO 17007KT 9999 FEW012 SCT054 OVC130 02/00 Q1008

Expired Forecast.



MET'MAP, your aeronautical weather chart ! - Copyright ORBIFLY December 2007 - Disclaimer

ORBIFLY MET'MAP TEAM :

Programming & Development : Alexandra Zaïnal
Concept & original design : Baudouin d'Aumeries
Assistance for programming : Marc-Olivier Méhu
Technical & hardware support : Manuel Goepfert

Contact : metmap@orbifly.com




SOURCES & CREDITS :

   NOAA